createdAt,value
2023-04-18T00:00:13.303Z,12.32
2023-04-18T00:02:39.344Z,11.73
2023-04-18T00:05:06.798Z,12.52
2023-04-18T00:07:33.805Z,12.70
2023-04-18T00:09:59.533Z,11.27
2023-04-18T00:12:25.280Z,10.50
2023-04-18T00:14:51.500Z,12.02
2023-04-18T00:17:18.004Z,11.40
2023-04-18T00:19:43.719Z,11.27
2023-04-18T00:22:10.136Z,11.50
2023-04-18T00:24:35.860Z,11.05
2023-04-18T00:27:01.609Z,11.60
2023-04-18T00:29:27.432Z,9.90
2023-04-18T00:31:53.155Z,11.52
2023-04-18T00:34:18.893Z,11.15
2023-04-18T00:36:44.640Z,11.20
2023-04-18T00:39:10.485Z,10.02
2023-04-18T00:41:36.212Z,11.20
2023-04-18T00:44:01.963Z,10.77
2023-04-18T00:46:27.782Z,11.88
2023-04-18T00:48:53.668Z,11.35
2023-04-18T00:51:19.886Z,11.00
2023-04-18T00:53:45.733Z,11.45
2023-04-18T00:56:11.652Z,10.23
2023-04-18T00:58:39.767Z,11.63
2023-04-18T01:01:05.816Z,11.32
2023-04-18T01:03:32.362Z,11.15
2023-04-18T01:05:58.332Z,10.73
2023-04-18T01:08:24.281Z,11.35
2023-04-18T01:10:50.051Z,12.43
2023-04-18T01:13:16.763Z,11.25
2023-04-18T01:15:43.384Z,12.38
2023-04-18T01:18:09.544Z,10.38
2023-04-18T01:20:37.712Z,11.02
2023-04-18T01:23:03.630Z,9.32
2023-04-18T01:25:29.346Z,12.02
2023-04-18T01:27:58.113Z,10.50
2023-04-18T01:30:23.837Z,10.77
2023-04-18T01:32:49.610Z,10.52
2023-04-18T01:35:15.439Z,9.77
2023-04-18T01:37:41.180Z,11.20
2023-04-18T01:40:07.193Z,10.40
2023-04-18T01:42:32.948Z,11.13
2023-04-18T01:44:58.667Z,10.00
2023-04-18T01:47:24.456Z,10.63
2023-04-18T01:49:50.219Z,10.75
2023-04-18T01:52:16.687Z,10.90
2023-04-18T01:54:42.433Z,11.20
2023-04-18T01:57:08.190Z,11.07
2023-04-18T01:59:33.922Z,11.18
2023-04-18T02:01:59.770Z,10.38
2023-04-18T02:04:25.936Z,12.05
2023-04-18T02:06:51.791Z,9.63
2023-04-18T02:09:17.478Z,9.65
2023-04-18T02:11:43.214Z,10.23
2023-04-18T02:14:08.951Z,10.48
2023-04-18T02:16:34.917Z,9.80
2023-04-18T02:19:00.849Z,9.95
2023-04-18T02:21:29.583Z,11.48
2023-04-18T02:23:55.862Z,10.70
2023-04-18T02:26:21.999Z,9.02
2023-04-18T02:28:47.870Z,8.75
2023-04-18T02:31:14.714Z,9.35
2023-04-18T02:33:44.941Z,10.27
2023-04-18T02:36:13.452Z,11.00
2023-04-18T02:38:39.179Z,9.80
2023-04-18T02:41:04.992Z,9.82
2023-04-18T02:43:31.179Z,10.32
2023-04-18T02:45:56.980Z,9.40
2023-04-18T02:48:22.936Z,9.45
2023-04-18T02:50:48.693Z,10.52
2023-04-18T02:53:15.743Z,9.20
2023-04-18T02:55:41.481Z,9.10
2023-04-18T02:58:07.238Z,9.02
2023-04-18T03:00:33.483Z,9.82
2023-04-18T03:02:59.359Z,9.13
2023-04-18T03:05:25.563Z,8.43
2023-04-18T03:07:51.268Z,9.68
2023-04-18T03:10:17.083Z,9.23
2023-04-18T03:12:42.860Z,9.15
2023-04-18T03:15:08.903Z,9.70
2023-04-18T03:17:35.444Z,10.13
2023-04-18T03:20:01.230Z,9.32
2023-04-18T03:22:26.961Z,9.02
2023-04-18T03:24:52.727Z,9.20
2023-04-18T03:27:18.520Z,9.35
2023-04-18T03:29:44.273Z,9.57
2023-04-18T03:32:10.033Z,7.32
2023-04-18T03:34:35.789Z,10.45
2023-04-18T03:37:01.576Z,8.73
2023-04-18T03:39:27.308Z,9.73
2023-04-18T03:41:53.078Z,9.32
2023-04-18T03:44:18.946Z,10.05
2023-04-18T03:46:45.137Z,10.98
2023-04-18T03:49:10.911Z,11.07
2023-04-18T03:51:43.669Z,10.38
2023-04-18T03:54:09.503Z,9.85
2023-04-18T03:56:35.310Z,10.30
2023-04-18T03:59:01.079Z,10.00
2023-04-18T04:01:26.955Z,10.80
2023-04-18T04:03:52.995Z,9.27
2023-04-18T04:06:18.980Z,9.02
2023-04-18T04:08:45.199Z,8.68
2023-04-18T04:11:10.990Z,11.40
2023-04-18T04:13:36.738Z,9.68
2023-04-18T04:16:03.656Z,8.98
2023-04-18T04:18:30.865Z,10.18
2023-04-18T04:20:57.490Z,9.02
2023-04-18T04:23:26.083Z,9.40
2023-04-18T04:25:52.954Z,10.55
2023-04-18T04:28:22.480Z,9.98
2023-04-18T04:30:50.604Z,9.35
2023-04-18T04:33:17.967Z,8.93
2023-04-18T04:35:43.830Z,10.20
2023-04-18T04:38:11.783Z,10.02
2023-04-18T04:40:37.637Z,8.25
2023-04-18T04:43:03.865Z,8.63
2023-04-18T04:45:33.137Z,9.45
2023-04-18T04:47:59.078Z,6.68
2023-04-18T04:50:25.216Z,7.35
2023-04-18T04:52:50.979Z,8.25
2023-04-18T04:55:17.283Z,9.57
2023-04-18T04:57:44.412Z,9.40
2023-04-18T05:00:10.885Z,9.60
2023-04-18T05:02:37.255Z,7.95
2023-04-18T05:05:03.481Z,8.43
2023-04-18T05:07:30.215Z,8.10
2023-04-18T05:09:56.185Z,8.82
2023-04-18T05:12:22.604Z,7.80
2023-04-18T05:15:04.047Z,7.82
2023-04-18T05:17:29.999Z,7.85
2023-04-18T05:19:57.245Z,7.10
2023-04-18T05:22:26.238Z,7.40
2023-04-18T05:24:53.431Z,7.38
2023-04-18T05:27:19.602Z,9.43
2023-04-18T05:29:48.345Z,8.13
2023-04-18T05:32:16.090Z,7.68
2023-04-18T05:34:52.458Z,8.57
2023-04-18T05:37:18.516Z,6.65
2023-04-18T05:45:21.171Z,6.30
2023-04-18T05:47:48.431Z,7.88
2023-04-18T05:50:20.014Z,6.85
2023-04-18T05:52:46.151Z,8.50
2023-04-18T05:55:26.090Z,7.35
2023-04-18T06:00:36.371Z,8.23
2023-04-18T06:03:02.658Z,8.65
2023-04-18T06:05:29.716Z,7.72
2023-04-18T06:07:56.070Z,8.52
2023-04-18T06:10:31.082Z,8.38
2023-04-18T06:13:00.910Z,7.50
2023-04-18T06:15:29.983Z,7.33
2023-04-18T06:17:56.157Z,8.13
2023-04-18T06:20:22.864Z,9.05
2023-04-18T06:22:49.208Z,7.63
2023-04-18T06:25:15.629Z,8.05
2023-04-18T06:27:46.969Z,7.53
2023-04-18T06:30:14.142Z,7.43
2023-04-18T06:32:40.725Z,8.50
2023-04-18T06:35:09.753Z,8.25
2023-04-18T06:37:35.777Z,9.65
2023-04-18T06:40:02.326Z,8.15
2023-04-18T06:42:28.278Z,9.32
2023-04-18T06:44:54.924Z,9.52
2023-04-18T06:47:21.858Z,9.00
2023-04-18T06:49:57.933Z,8.73
2023-04-18T06:52:24.336Z,8.70
2023-04-18T06:54:50.766Z,9.10
2023-04-18T06:57:17.036Z,7.68
2023-04-18T06:59:43.113Z,8.18
2023-04-18T07:02:10.189Z,7.40
2023-04-18T07:04:36.942Z,6.40
2023-04-18T07:07:07.648Z,7.97
2023-04-18T07:09:34.851Z,7.72
2023-04-18T07:14:54.509Z,8.50
2023-04-18T07:17:20.694Z,8.32
2023-04-18T07:19:51.908Z,7.80
2023-04-18T07:22:18.241Z,6.97
2023-04-18T07:24:47.312Z,7.20
2023-04-18T07:29:58.643Z,7.13
2023-04-18T07:32:32.112Z,7.90
2023-04-18T07:34:59.008Z,7.68
2023-04-18T07:37:25.634Z,7.05
2023-04-18T07:39:51.661Z,6.60
2023-04-18T07:42:18.299Z,7.30
2023-04-18T07:45:04.669Z,6.88
2023-04-18T07:47:33.468Z,7.68
2023-04-18T07:50:04.766Z,7.40
2023-04-18T07:52:31.029Z,7.35
2023-04-18T07:55:00.192Z,7.72
2023-04-18T07:57:26.544Z,7.95
2023-04-18T07:59:55.111Z,8.32
2023-04-18T08:02:21.293Z,7.47
2023-04-18T08:04:51.359Z,7.97
2023-04-18T08:09:46.475Z,7.75
2023-04-18T08:12:13.006Z,7.78
2023-04-18T08:14:39.643Z,7.63
2023-04-18T08:17:23.980Z,7.75
2023-04-18T08:19:50.032Z,7.38
2023-04-18T08:22:15.915Z,7.72
2023-04-18T08:24:48.491Z,7.22
2023-04-18T08:27:24.244Z,7.68
2023-04-18T08:29:51.612Z,8.02
2023-04-18T08:32:17.670Z,7.70
2023-04-18T08:34:44.337Z,7.15
2023-04-18T08:37:10.523Z,8.30
2023-04-18T08:39:36.392Z,8.13
2023-04-18T08:42:03.965Z,7.15
2023-04-18T08:44:30.066Z,7.65
2023-04-18T08:46:57.379Z,8.73
2023-04-18T08:49:24.379Z,7.95
2023-04-18T08:51:53.594Z,8.63
2023-04-18T08:54:20.565Z,7.88
2023-04-18T08:56:47.283Z,8.15
2023-04-18T08:59:13.430Z,8.02
2023-04-18T09:01:59.306Z,8.23
2023-04-18T09:04:34.588Z,7.72
2023-04-18T09:07:01.466Z,7.45
2023-04-18T09:09:27.562Z,9.52
2023-04-18T09:12:10.181Z,8.60
2023-04-18T09:14:37.395Z,8.07
2023-04-18T09:17:43.718Z,7.47
2023-04-18T09:20:10.409Z,8.32
2023-04-18T09:22:45.889Z,8.18
2023-04-18T09:25:27.761Z,8.57
2023-04-18T09:27:54.367Z,8.25
2023-04-18T09:30:36.280Z,9.35
2023-04-18T09:33:06.389Z,7.38
2023-04-18T09:35:33.388Z,8.65
2023-04-18T09:37:59.399Z,8.57
2023-04-18T09:40:26.588Z,7.82
2023-04-18T09:42:56.251Z,8.65
2023-04-18T09:45:22.790Z,8.68
2023-04-18T09:47:49.966Z,8.45
2023-04-18T09:50:17.639Z,7.78
2023-04-18T09:52:44.394Z,8.48
2023-04-18T09:55:12.179Z,8.25
2023-04-18T09:57:41.839Z,6.72
2023-04-18T10:00:17.266Z,7.65
2023-04-18T10:05:46.011Z,8.40
2023-04-18T10:08:12.900Z,6.97
2023-04-18T10:10:39.965Z,7.50
2023-04-18T10:13:08.476Z,6.75
2023-04-18T10:15:34.452Z,6.88
2023-04-18T10:18:05.339Z,7.57
2023-04-18T10:20:32.434Z,7.53
2023-04-18T10:22:59.176Z,6.10
2023-04-18T10:25:34.469Z,6.45
2023-04-18T10:28:00.993Z,7.57
2023-04-18T10:30:49.081Z,7.18
2023-04-18T10:33:30.451Z,5.88
2023-04-18T10:36:07.118Z,6.80
2023-04-18T10:38:33.666Z,6.78
2023-04-18T10:41:18.417Z,6.05
2023-04-18T10:44:03.246Z,7.10
2023-04-18T10:46:32.228Z,6.85
2023-04-18T10:49:32.739Z,7.22
2023-04-18T10:51:59.969Z,5.80
2023-04-18T10:54:27.871Z,6.32
2023-04-18T10:56:54.850Z,6.43
2023-04-18T10:59:22.000Z,5.78
2023-04-18T11:01:48.556Z,6.35
2023-04-18T11:04:14.998Z,7.15
2023-04-18T11:06:48.867Z,6.00
2023-04-18T11:09:15.335Z,5.78
2023-04-18T11:11:41.902Z,6.35
2023-04-18T11:14:07.956Z,6.85
2023-04-18T11:16:33.934Z,7.25
2023-04-18T11:19:00.054Z,6.30
2023-04-18T11:21:30.688Z,6.55
2023-04-18T11:23:57.125Z,7.15
2023-04-18T11:26:26.639Z,6.68
2023-04-18T11:28:55.899Z,6.00
2023-04-18T11:31:22.770Z,6.50
2023-04-18T11:33:48.923Z,6.78
2023-04-18T11:36:15.120Z,6.70
2023-04-18T11:38:41.469Z,6.25
2023-04-18T11:41:14.281Z,7.28
2023-04-18T11:43:44.367Z,6.93
2023-04-18T11:46:11.005Z,6.93
2023-04-18T11:48:37.725Z,5.88
2023-04-18T11:51:04.680Z,6.13
2023-04-18T11:53:34.419Z,6.13
2023-04-18T11:56:00.648Z,6.30
2023-04-18T11:58:33.056Z,6.18
2023-04-18T12:00:59.893Z,6.07
2023-04-18T12:03:28.826Z,6.03
2023-04-18T12:05:59.905Z,6.55
2023-04-18T12:08:26.704Z,6.07
2023-04-18T12:10:53.103Z,5.57
2023-04-18T12:13:23.712Z,6.05
2023-04-18T12:18:28.463Z,5.32
2023-04-18T12:20:54.676Z,6.95
2023-04-18T12:23:31.028Z,6.55
2023-04-18T12:26:03.913Z,6.65
2023-04-18T12:28:30.284Z,5.75
2023-04-18T12:30:56.847Z,5.82
2023-04-18T12:33:23.307Z,5.88
2023-04-18T12:35:50.230Z,6.55
2023-04-18T12:38:18.853Z,5.88
2023-04-18T12:40:44.838Z,5.78
2023-04-18T12:43:10.938Z,5.35
2023-04-18T12:45:37.382Z,5.53
2023-04-18T12:48:03.525Z,5.00
2023-04-18T12:50:30.066Z,5.55
2023-04-18T12:52:56.820Z,5.70
2023-04-18T12:55:23.040Z,5.93
2023-04-18T12:57:51.451Z,6.25
2023-04-18T13:00:17.702Z,5.75
2023-04-18T13:02:44.865Z,6.40
2023-04-18T13:05:13.035Z,6.10
2023-04-18T13:07:40.258Z,6.85
2023-04-18T13:10:07.894Z,6.32
2023-04-18T13:12:34.053Z,6.03
2023-04-18T13:15:00.176Z,6.80
2023-04-18T13:17:27.379Z,6.95
2023-04-18T13:19:53.560Z,6.82
2023-04-18T13:22:19.874Z,5.85
2023-04-18T13:24:46.502Z,5.70
2023-04-18T13:27:15.740Z,7.18
2023-04-18T13:29:43.128Z,6.45
2023-04-18T13:32:10.072Z,6.97
2023-04-18T13:34:38.206Z,7.40
2023-04-18T13:37:04.526Z,6.70
2023-04-18T13:39:32.388Z,7.35
2023-04-18T13:41:58.264Z,6.90
2023-04-18T13:44:27.252Z,7.80
2023-04-18T13:47:06.154Z,6.72
2023-04-18T13:49:38.629Z,7.38
2023-04-18T13:52:05.606Z,6.63
2023-04-18T13:54:33.007Z,7.15
2023-04-18T13:57:01.444Z,6.95
2023-04-18T13:59:31.033Z,6.95
2023-04-18T14:04:41.607Z,7.18
2023-04-18T14:07:08.508Z,7.25
2023-04-18T14:09:35.319Z,8.20
2023-04-18T14:12:02.229Z,6.85
2023-04-18T14:14:28.281Z,7.22
2023-04-18T14:16:57.662Z,6.72
2023-04-18T14:19:24.201Z,7.97
2023-04-18T14:21:50.734Z,7.80
2023-04-18T14:24:16.674Z,6.70
2023-04-18T14:26:42.810Z,8.30
2023-04-18T14:29:09.114Z,7.13
2023-04-18T14:31:35.692Z,8.75
2023-04-18T14:34:01.778Z,7.07
2023-04-18T14:36:27.926Z,7.70
2023-04-18T14:38:54.750Z,8.25
2023-04-18T14:41:21.423Z,7.78
2023-04-18T14:43:47.265Z,8.05
2023-04-18T14:46:43.964Z,6.53
2023-04-18T14:49:09.933Z,7.65
2023-04-18T14:51:37.702Z,6.05
2023-04-18T14:54:03.578Z,7.95
2023-04-18T14:56:33.064Z,7.45
2023-04-18T14:58:58.945Z,6.82
2023-04-18T15:01:26.189Z,7.68
2023-04-18T15:03:52.668Z,6.90
2023-04-18T15:06:18.709Z,6.68
2023-04-18T15:08:44.984Z,6.20
2023-04-18T15:11:10.827Z,6.55
2023-04-18T15:13:37.826Z,6.82
2023-04-18T15:16:16.150Z,6.78
2023-04-18T15:18:43.219Z,6.90
2023-04-18T15:21:09.096Z,6.25
2023-04-18T15:23:35.293Z,6.40
2023-04-18T15:26:01.261Z,6.80
2023-04-18T15:28:27.257Z,6.47
2023-04-18T15:30:53.240Z,5.85
2023-04-18T15:33:20.399Z,5.07
2023-04-18T15:35:49.307Z,6.13
2023-04-18T15:38:15.381Z,6.15
2023-04-18T15:40:42.816Z,5.05
2023-04-18T15:43:09.397Z,6.25
2023-04-18T15:45:57.314Z,6.00
2023-04-18T15:48:24.448Z,4.82
2023-04-18T15:50:51.616Z,6.03
2023-04-18T15:53:19.969Z,5.13
2023-04-18T15:55:50.260Z,5.45
2023-04-18T15:58:16.554Z,4.68
2023-04-18T16:00:45.335Z,5.70
2023-04-18T16:03:13.022Z,5.07
2023-04-18T16:05:39.736Z,4.30
2023-04-18T16:08:25.896Z,5.15
2023-04-18T16:10:53.031Z,4.45
2023-04-18T16:13:20.149Z,4.93
2023-04-18T16:16:04.279Z,4.28
2023-04-18T16:18:30.507Z,3.90
2023-04-18T16:20:56.330Z,4.03
2023-04-18T16:23:22.345Z,3.90
2023-04-18T16:25:48.602Z,3.90
2023-04-18T16:28:14.491Z,4.20
2023-04-18T16:30:44.244Z,2.90
2023-04-18T16:33:10.398Z,3.70
2023-04-18T16:35:36.430Z,3.58
2023-04-18T16:38:02.267Z,3.88
2023-04-18T16:40:30.672Z,3.47
2023-04-18T16:42:57.653Z,3.78
2023-04-18T16:45:29.679Z,3.20
2023-04-18T16:47:56.756Z,4.40
2023-04-18T16:50:23.377Z,3.53
2023-04-18T16:52:49.455Z,3.15
2023-04-18T16:55:15.381Z,3.20
2023-04-18T16:57:41.219Z,3.13
2023-04-18T17:00:09.391Z,3.03
2023-04-18T17:02:36.058Z,2.92
2023-04-18T17:05:02.218Z,3.30
2023-04-18T17:07:28.401Z,2.60
2023-04-18T17:09:55.800Z,2.40
2023-04-18T17:12:21.743Z,2.65
2023-04-18T17:14:50.785Z,2.38
2023-04-18T17:17:16.692Z,1.85
2023-04-18T17:19:42.577Z,2.97
2023-04-18T17:22:08.490Z,2.13
2023-04-18T17:24:34.721Z,2.50
2023-04-18T17:27:00.845Z,2.00
2023-04-18T17:29:27.479Z,2.10
2023-04-18T17:32:02.244Z,1.90
2023-04-18T17:34:28.263Z,2.20
2023-04-18T17:36:54.287Z,1.80
2023-04-18T17:39:20.347Z,1.88
2023-04-18T17:41:46.280Z,1.80
2023-04-18T17:44:12.171Z,2.05
2023-04-18T17:46:38.294Z,2.50
2023-04-18T17:49:04.211Z,1.58
2023-04-18T17:51:30.406Z,2.45
2023-04-18T17:53:56.384Z,2.15
2023-04-18T17:56:22.257Z,1.90
2023-04-18T17:58:48.489Z,2.55
2023-04-18T18:01:14.938Z,1.83
2023-04-18T18:03:41.031Z,2.85
2023-04-18T18:06:07.200Z,2.63
2023-04-18T18:08:33.105Z,2.92
2023-04-18T18:11:00.633Z,1.65
2023-04-18T18:13:26.956Z,2.53
2023-04-18T18:15:52.810Z,2.65
2023-04-18T18:18:18.819Z,2.83
2023-04-18T18:20:44.781Z,3.00
2023-04-18T18:23:10.714Z,2.65
2023-04-18T18:25:37.174Z,2.30
2023-04-18T18:28:03.038Z,2.80
2023-04-18T18:30:29.209Z,2.33
2023-04-18T18:32:55.969Z,2.72
2023-04-18T18:35:22.022Z,3.47
2023-04-18T18:37:48.547Z,3.22
2023-04-18T18:40:14.573Z,2.70
2023-04-18T18:42:42.042Z,3.15
2023-04-18T18:45:13.145Z,2.72
2023-04-18T18:47:40.081Z,3.00
2023-04-18T18:50:06.762Z,3.60
2023-04-18T18:52:34.732Z,4.10
2023-04-18T18:55:00.777Z,3.50
2023-04-18T18:57:26.981Z,3.80
2023-04-18T18:59:55.140Z,3.53
2023-04-18T19:02:21.797Z,2.50
2023-04-18T19:04:47.940Z,2.67
2023-04-18T19:07:13.787Z,2.92
2023-04-18T19:09:39.658Z,2.28
2023-04-18T19:12:06.137Z,3.08
2023-04-18T19:14:32.474Z,3.78
2023-04-18T19:16:58.401Z,2.75
2023-04-18T19:19:24.487Z,2.50
2023-04-18T19:21:50.427Z,2.92
2023-04-18T19:24:16.747Z,3.05
2023-04-18T19:26:42.649Z,3.75
2023-04-18T19:29:09.680Z,2.97
2023-04-18T19:31:36.128Z,3.40
2023-04-18T19:34:02.246Z,2.58
2023-04-18T19:36:28.751Z,3.78
2023-04-18T19:38:54.939Z,3.08
2023-04-18T19:41:21.189Z,2.05
2023-04-18T19:43:47.837Z,2.85
2023-04-18T19:46:13.905Z,2.65
2023-04-18T19:48:39.920Z,3.63
2023-04-18T19:51:06.466Z,2.83
2023-04-18T19:53:33.453Z,2.88
2023-04-18T19:55:59.398Z,3.45
2023-04-18T19:58:36.124Z,2.90
2023-04-18T20:01:05.088Z,3.35
2023-04-18T20:03:32.513Z,3.10
2023-04-18T20:05:58.574Z,2.92
2023-04-18T20:08:24.634Z,3.05
2023-04-18T20:10:50.444Z,2.75
2023-04-18T20:13:16.608Z,2.72
2023-04-18T20:15:45.482Z,3.08
2023-04-18T20:18:11.500Z,2.65
2023-04-18T20:20:37.291Z,3.08
2023-04-18T20:23:03.229Z,2.95
2023-04-18T20:25:29.171Z,3.17
2023-04-18T20:27:54.949Z,3.40
2023-04-18T20:30:21.565Z,3.45
2023-04-18T20:32:47.481Z,3.63
2023-04-18T20:35:13.416Z,3.80
2023-04-18T20:37:40.743Z,4.63
2023-04-18T20:40:10.252Z,3.50
2023-04-18T20:42:36.563Z,2.88
2023-04-18T20:45:22.792Z,3.38
2023-04-18T20:47:48.806Z,3.25
2023-04-18T20:50:17.443Z,4.15
2023-04-18T20:52:43.897Z,3.08
2023-04-18T20:55:10.350Z,3.80
2023-04-18T20:57:36.103Z,3.20
2023-04-18T21:00:05.667Z,3.25
2023-04-18T21:02:31.752Z,2.97
2023-04-18T21:05:00.809Z,3.58
2023-04-18T21:07:26.871Z,3.95
2023-04-18T21:09:52.664Z,2.67
2023-04-18T21:12:18.678Z,4.30
2023-04-18T21:14:44.486Z,3.38
2023-04-18T21:17:10.329Z,3.38
2023-04-18T21:19:36.130Z,4.60
2023-04-18T21:22:02.032Z,4.72
2023-04-18T21:24:27.914Z,4.10
2023-04-18T21:26:53.699Z,4.13
2023-04-18T21:29:21.006Z,4.82
2023-04-18T21:31:48.760Z,5.95
2023-04-18T21:34:14.822Z,2.80
2023-04-18T21:36:40.684Z,4.78
2023-04-18T21:39:07.732Z,3.42
2023-04-18T21:41:33.729Z,6.13
2023-04-18T21:43:59.537Z,4.78
2023-04-18T21:46:25.343Z,5.75
2023-04-18T21:48:51.203Z,4.78
2023-04-18T21:51:17.029Z,4.10
2023-04-18T21:53:43.177Z,5.25
2023-04-18T21:56:09.079Z,4.88
2023-04-18T21:58:34.995Z,4.32
2023-04-18T22:01:01.166Z,4.78
2023-04-18T22:05:53.276Z,4.95
2023-04-18T22:08:19.645Z,4.50
2023-04-18T22:10:45.718Z,4.90
2023-04-18T22:13:11.924Z,3.33
2023-04-18T22:15:41.604Z,4.68
2023-04-18T22:18:07.822Z,4.63
2023-04-18T22:20:36.716Z,4.70
2023-04-18T22:23:03.813Z,4.63
2023-04-18T22:25:29.910Z,5.30
2023-04-18T22:27:55.675Z,4.72
2023-04-18T22:30:21.538Z,5.50
2023-04-18T22:32:47.394Z,4.00
2023-04-18T22:35:13.201Z,5.82
2023-04-18T22:37:38.931Z,4.00
2023-04-18T22:40:04.980Z,3.75
2023-04-18T22:42:32.145Z,6.82
2023-04-18T22:44:59.450Z,4.70
2023-04-18T22:47:26.134Z,3.95
2023-04-18T22:49:52.299Z,4.53
2023-04-18T22:52:18.526Z,4.40
2023-04-18T22:54:44.338Z,4.60
2023-04-18T22:57:10.242Z,4.03
2023-04-18T22:59:36.007Z,4.35
2023-04-18T23:02:01.835Z,4.65
2023-04-18T23:04:30.945Z,5.03
2023-04-18T23:06:56.781Z,3.72
2023-04-18T23:09:22.635Z,4.70
2023-04-18T23:11:48.372Z,4.65
2023-04-18T23:14:15.218Z,4.32
2023-04-18T23:16:46.128Z,3.53
2023-04-18T23:21:37.470Z,3.50
2023-04-18T23:24:03.294Z,3.55
2023-04-18T23:26:29.050Z,3.05
2023-04-18T23:28:54.830Z,3.63
2023-04-18T23:31:20.925Z,3.65
2023-04-18T23:33:46.730Z,3.72
2023-04-18T23:36:12.485Z,3.47
2023-04-18T23:38:38.994Z,4.00
2023-04-18T23:41:04.839Z,4.07
2023-04-18T23:43:30.591Z,3.47
2023-04-18T23:45:56.328Z,2.90
2023-04-18T23:48:22.142Z,3.25
2023-04-18T23:50:48.393Z,2.88
2023-04-18T23:53:16.199Z,2.53
2023-04-18T23:55:42.045Z,2.97
2023-04-18T23:58:07.805Z,2.63
